Time;durP1;ratioP1;P1;durP2;ratioP2;P2;SDS_P1;SDS_P2;PMS_P1;PMS_P2;Temp;Humidity;BMP_temperature;BMP_pressure;BME280_temperature;BME280_humidity;BME280_pressure;Samples;Min_cycle;Max_cycle;Signal;HPM_P1;HPM_P2
2021/12/03 00:00:41;;;;;;;5.43;4.93;;;;;;;-146.32;100.00;58893.91;6228984;28;20228;-63
2021/12/03 00:04:02;;;;;;;8.30;4.83;;;;;;;-146.32;100.00;58893.91;6226009;28;20228;-64
2021/12/03 00:07:24;;;;;;;5.47;4.70;;;;;;;-146.32;100.00;58893.91;6227352;28;20228;-63
2021/12/03 00:10:49;;;;;;;6.00;4.67;;;;;;;-146.32;100.00;58893.91;6230992;28;20224;-63
2021/12/03 00:14:10;;;;;;;5.03;4.53;;;;;;;-146.32;100.00;58893.91;6219469;28;20232;-62
2021/12/03 00:17:31;;;;;;;4.77;4.30;;;;;;;-146.32;100.00;58893.91;6230982;28;20225;-63
2021/12/03 00:20:53;;;;;;;6.30;4.70;;;;;;;-146.32;100.00;58893.91;6236805;28;20602;-63
2021/12/03 00:24:15;;;;;;;5.63;4.87;;;;;;;-146.32;100.00;58893.91;6227424;28;20228;-63
2021/12/03 00:27:37;;;;;;;5.70;4.90;;;;;;;-146.32;100.00;58893.91;6233553;28;20228;-63
2021/12/03 00:30:59;;;;;;;5.03;4.13;;;;;;;-146.32;100.00;58893.91;6228652;28;20264;-64
2021/12/03 00:34:20;;;;;;;8.77;5.50;;;;;;;-146.32;100.00;58893.91;6234871;28;20221;-63
2021/12/03 00:37:42;;;;;;;7.53;4.83;;;;;;;-146.32;100.00;58893.91;6229344;28;20511;-64
2021/12/03 00:41:07;;;;;;;9.00;5.77;;;;;;;-146.32;100.00;58893.91;6228974;28;20231;-62
2021/12/03 00:44:29;;;;;;;5.30;4.67;;;;;;;-146.32;100.00;58893.91;6231742;28;20500;-63
2021/12/03 00:47:50;;;;;;;9.63;5.00;;;;;;;-146.32;100.00;58893.91;6231997;28;20649;-63
2021/12/03 00:51:12;;;;;;;5.50;4.63;;;;;;;-146.32;100.00;58893.91;6233954;28;20223;-63
2021/12/03 00:54:33;;;;;;;7.17;4.40;;;;;;;-146.32;100.00;58893.91;6236044;28;20224;-63
2021/12/03 00:57:56;;;;;;;5.23;4.27;;;;;;;-146.32;100.00;58893.91;6230365;28;20319;-62
2021/12/03 01:01:17;;;;;;;5.77;4.13;;;;;;;-146.32;100.00;58893.91;6232785;28;20240;-63
2021/12/03 01:04:38;;;;;;;4.03;3.63;;;;;;;-146.32;100.00;58893.91;6232461;28;20725;-63
2021/12/03 01:08:00;;;;;;;5.17;3.80;;;;;;;-146.32;100.00;58893.91;6234811;28;20236;-62
2021/12/03 01:11:21;;;;;;;7.20;4.00;;;;;;;-146.32;100.00;58893.91;6231335;28;20315;-62
2021/12/03 01:14:44;;;;;;;6.63;4.43;;;;;;;-146.32;100.00;58893.91;6236652;28;20225;-63
2021/12/03 01:18:07;;;;;;;4.20;3.80;;;;;;;-146.32;100.00;58893.91;6226128;28;20538;-63
2021/12/03 01:21:28;;;;;;;4.00;2.97;;;;;;;-146.32;100.00;58893.91;6227628;28;20679;-63
2021/12/03 01:24:49;;;;;;;4.33;2.97;;;;;;;-146.32;100.00;58893.91;6235609;28;20663;-63
2021/12/03 01:28:11;;;;;;;5.33;3.13;;;;;;;-146.32;100.00;58893.91;6229877;28;20227;-64
2021/12/03 01:31:34;;;;;;;4.93;4.40;;;;;;;-146.32;100.00;58893.91;6227032;28;20722;-62
2021/12/03 01:34:55;;;;;;;6.17;3.27;;;;;;;-146.32;100.00;58893.91;6228816;28;20237;-62
2021/12/03 01:38:16;;;;;;;4.27;3.80;;;;;;;-146.32;100.00;58893.91;6228013;28;20680;-62
2021/12/03 01:41:37;;;;;;;6.83;3.77;;;;;;;-146.32;100.00;58893.91;6229977;28;20593;-63
2021/12/03 01:44:58;;;;;;;4.87;4.33;;;;;;;-146.32;100.00;58893.91;6212266;28;20229;-63
2021/12/03 01:48:21;;;;;;;5.87;5.00;;;;;;;-146.32;100.00;58893.91;6232192;28;20228;-63
2021/12/03 01:51:42;;;;;;;5.03;4.53;;;;;;;-146.32;100.00;58893.91;6221726;28;20224;-63
2021/12/03 01:55:06;;;;;;;6.83;5.73;;;;;;;-146.32;100.00;58893.91;6230497;28;20248;-63
2021/12/03 01:58:27;;;;;;;6.37;5.77;;;;;;;-146.32;100.00;58893.91;6231071;28;20232;-63
2021/12/03 02:01:48;;;;;;;6.43;5.83;;;;;;;-146.32;100.00;58893.91;6223396;28;20217;-63
2021/12/03 02:05:11;;;;;;;6.20;5.60;;;;;;;-146.32;100.00;58893.91;6229438;28;20713;-62
2021/12/03 02:08:32;;;;;;;6.70;6.00;;;;;;;-146.32;100.00;58893.91;6231059;28;20228;-63
2021/12/03 02:11:54;;;;;;;4.73;4.30;;;;;;;-146.32;100.00;58893.91;6229034;28;20232;-63
2021/12/03 02:15:15;;;;;;;6.53;5.93;;;;;;;-146.32;100.00;58893.91;6223626;28;20252;-63
2021/12/03 02:18:36;;;;;;;7.90;6.40;;;;;;;-146.32;100.00;58893.91;6229283;28;20500;-63
2021/12/03 02:21:58;;;;;;;6.10;5.60;;;;;;;-146.32;100.00;58893.91;6230791;28;20253;-63
2021/12/03 02:25:22;;;;;;;8.40;5.37;;;;;;;-146.32;100.00;58893.91;6228475;28;20618;-62
2021/12/03 02:28:45;;;;;;;7.97;6.30;;;;;;;-146.32;100.00;58893.91;6229234;28;20231;-63
2021/12/03 02:32:07;;;;;;;5.73;5.23;;;;;;;-146.32;100.00;58893.91;6229165;28;20516;-63
2021/12/03 02:35:28;;;;;;;8.17;5.83;;;;;;;-146.32;100.00;58893.91;6233693;28;20602;-63
2021/12/03 02:38:51;;;;;;;5.33;4.80;;;;;;;-146.32;100.00;58893.91;6227520;28;20232;-62
2021/12/03 02:42:11;;;;;;;6.67;6.03;;;;;;;-146.32;100.00;58893.91;6225161;28;20323;-62
2021/12/03 02:45:32;;;;;;;5.07;4.23;;;;;;;-146.32;100.00;58893.91;6234495;28;20232;-62
2021/12/03 02:48:54;;;;;;;7.07;4.73;;;;;;;-146.32;100.00;58893.91;6227183;28;20228;-62
2021/12/03 02:52:15;;;;;;;7.00;4.67;;;;;;;-146.32;100.00;58893.91;6229705;28;20272;-63
2021/12/03 02:55:37;;;;;;;5.37;4.87;;;;;;;-146.32;100.00;58893.91;6228865;28;20228;-63
2021/12/03 02:58:58;;;;;;;5.27;4.87;;;;;;;-146.32;100.00;58893.91;6233817;28;20228;-63
2021/12/03 03:02:19;;;;;;;6.87;5.47;;;;;;;-146.32;100.00;58893.91;6228749;28;20700;-63
2021/12/03 03:05:40;;;;;;;5.93;4.90;;;;;;;-146.32;100.00;58893.91;6228057;28;20232;-63
2021/12/03 03:09:03;;;;;;;7.10;5.00;;;;;;;-146.32;100.00;58893.91;6233282;28;20225;-64
2021/12/03 03:12:25;;;;;;;6.20;5.47;;;;;;;-146.32;100.00;58893.91;6226618;28;20514;-62
2021/12/03 03:15:47;;;;;;;5.03;4.60;;;;;;;-146.32;100.00;58893.91;6230345;28;20579;-63
2021/12/03 03:19:12;;;;;;;5.47;4.43;;;;;;;-146.32;100.00;58893.91;6228157;28;20228;-62
2021/12/03 03:22:34;;;;;;;5.40;4.90;;;;;;;-146.32;100.00;58893.91;6225349;28;20232;-63
2021/12/03 03:25:55;;;;;;;5.13;4.70;;;;;;;-146.32;100.00;58893.91;6228221;28;20229;-63
2021/12/03 03:29:17;;;;;;;4.93;4.43;;;;;;;-146.32;100.00;58893.91;6225282;28;20235;-63
2021/12/03 03:32:39;;;;;;;4.90;4.50;;;;;;;-146.32;100.00;58893.91;6223927;28;20790;-63
2021/12/03 03:36:00;;;;;;;5.70;5.10;;;;;;;-146.32;100.00;58893.91;6228633;28;20224;-63
2021/12/03 03:39:21;;;;;;;5.83;5.17;;;;;;;-146.32;100.00;58893.91;6231226;28;20228;-62
2021/12/03 03:42:42;;;;;;;10.13;4.63;;;;;;;-146.32;100.00;58893.91;6225117;28;20232;-62
2021/12/03 03:46:04;;;;;;;7.57;6.43;;;;;;;-146.32;100.00;58893.91;6225624;28;20240;-62
2021/12/03 03:49:25;;;;;;;7.00;4.77;;;;;;;-146.32;100.00;58893.91;6223620;28;20236;-61
2021/12/03 03:52:48;;;;;;;7.00;5.17;;;;;;;-146.32;100.00;58893.91;6215170;28;20256;-62
2021/12/03 03:56:10;;;;;;;8.83;4.90;;;;;;;-146.32;100.00;58893.91;6226674;28;20236;-62
2021/12/03 03:59:31;;;;;;;7.60;5.37;;;;;;;-146.32;100.00;58893.91;6224968;28;20508;-62
2021/12/03 04:02:54;;;;;;;6.50;5.90;;;;;;;-146.32;100.00;58893.91;6221160;28;20220;-63
2021/12/03 04:06:16;;;;;;;8.30;5.20;;;;;;;-146.32;100.00;58893.91;6228671;28;20637;-62
2021/12/03 04:09:37;;;;;;;7.87;6.00;;;;;;;-146.32;100.00;58893.91;6229648;28;20331;-63
2021/12/03 04:12:59;;;;;;;11.80;5.43;;;;;;;-146.32;100.00;58893.91;6228157;28;20244;-63
2021/12/03 04:16:20;;;;;;;5.90;5.00;;;;;;;-146.32;100.00;58893.91;6227967;28;20497;-61
2021/12/03 04:19:43;;;;;;;5.43;4.93;;;;;;;-146.32;100.00;58893.91;6230699;28;20609;-62
2021/12/03 04:23:04;;;;;;;6.90;6.30;;;;;;;-146.32;100.00;58893.91;6210838;28;20224;-63
2021/12/03 04:26:25;;;;;;;5.73;4.70;;;;;;;-146.32;100.00;58893.91;6224972;28;20232;-61
2021/12/03 04:29:47;;;;;;;5.97;5.13;;;;;;;-146.32;100.00;58893.91;6231353;28;20431;-63
2021/12/03 04:33:09;;;;;;;8.03;4.83;;;;;;;-146.32;100.00;58893.91;6225087;28;20618;-63
2021/12/03 04:36:31;;;;;;;8.67;4.70;;;;;;;-146.32;100.00;58893.91;6228825;28;20859;-63
2021/12/03 04:39:52;;;;;;;5.87;4.70;;;;;;;-146.32;100.00;58893.91;6226921;28;20333;-62
2021/12/03 04:43:13;;;;;;;7.43;5.87;;;;;;;-146.32;100.00;58893.91;6225007;28;20232;-63
2021/12/03 04:46:35;;;;;;;5.27;4.77;;;;;;;-146.32;100.00;58893.91;6227810;28;20228;-62
2021/12/03 04:49:55;;;;;;;9.50;5.03;;;;;;;-146.32;100.00;58893.91;6224385;28;20220;-62
2021/12/03 04:53:19;;;;;;;7.23;5.57;;;;;;;-146.32;100.00;58893.91;6231744;28;20237;-61
2021/12/03 04:56:40;;;;;;;4.33;4.03;;;;;;;-146.32;100.00;58893.91;6228404;28;20225;-63
2021/12/03 05:00:01;;;;;;;5.97;4.17;;;;;;;-146.32;100.00;58893.91;6233882;28;20236;-63
2021/12/03 05:03:24;;;;;;;5.23;4.70;;;;;;;-146.32;100.00;58893.91;6228964;28;20314;-62
2021/12/03 05:07:04;;;;;;;7.43;5.07;;;;;;;-146.32;100.00;58893.91;6230970;28;20232;-63
2021/12/03 05:10:27;;;;;;;7.33;5.83;;;;;;;-146.32;100.00;58893.91;6233337;28;20228;-62
2021/12/03 05:13:48;;;;;;;6.50;5.60;;;;;;;-146.32;100.00;58893.91;6229115;28;20582;-63
2021/12/03 05:17:09;;;;;;;8.53;4.70;;;;;;;-146.32;100.00;58893.91;6230811;28;20229;-63
2021/12/03 05:20:30;;;;;;;7.60;5.10;;;;;;;-146.32;100.00;58893.91;6229034;28;20260;-63
2021/12/03 05:23:51;;;;;;;5.47;4.53;;;;;;;-146.32;100.00;58893.91;6233966;28;20228;-63
2021/12/03 05:27:15;;;;;;;7.63;5.50;;;;;;;-146.32;100.00;58893.91;6232327;28;20505;-62
2021/12/03 05:30:36;;;;;;;6.63;5.63;;;;;;;-146.32;100.00;58893.91;6228748;28;20922;-62
2021/12/03 05:33:57;;;;;;;5.53;4.97;;;;;;;-146.32;100.00;58893.91;6234482;28;20244;-63
2021/12/03 05:37:17;;;;;;;6.67;5.63;;;;;;;-146.32;100.00;58893.91;6230419;28;20228;-63
2021/12/03 05:40:38;;;;;;;8.47;5.53;;;;;;;-146.32;100.00;58893.91;6232876;28;20232;-63
2021/12/03 05:44:01;;;;;;;5.60;5.10;;;;;;;-146.32;100.00;58893.91;6231737;28;20240;-62
2021/12/03 05:47:22;;;;;;;6.70;5.93;;;;;;;-146.32;100.00;58893.91;6230867;28;20225;-63
2021/12/03 05:50:45;;;;;;;7.43;5.27;;;;;;;-146.32;100.00;58893.91;6231423;28;20621;-63
2021/12/03 05:54:06;;;;;;;5.87;4.93;;;;;;;-146.32;100.00;58893.91;6231724;28;20232;-64
2021/12/03 05:57:26;;;;;;;6.73;5.80;;;;;;;-146.32;100.00;58893.91;6230466;28;20228;-63
2021/12/03 06:00:49;;;;;;;4.63;4.20;;;;;;;-146.32;100.00;58893.91;6211513;28;20311;-63
2021/12/03 06:04:10;;;;;;;6.20;5.73;;;;;;;-146.32;100.00;58893.91;6232766;28;20252;-62
2021/12/03 06:07:31;;;;;;;10.87;6.30;;;;;;;-146.32;100.00;58893.91;6231722;28;20233;-63
2021/12/03 06:10:52;;;;;;;6.37;5.07;;;;;;;-146.32;100.00;58893.91;6226903;28;20611;-62
2021/12/03 06:14:13;;;;;;;7.50;5.53;;;;;;;-146.32;100.00;58893.91;6228635;28;20236;-63
2021/12/03 06:17:35;;;;;;;7.23;6.53;;;;;;;-146.32;100.00;58893.91;6223331;28;20237;-64
2021/12/03 06:20:56;;;;;;;6.70;5.50;;;;;;;-146.32;100.00;58893.91;6227329;28;20244;-63
2021/12/03 06:24:17;;;;;;;5.83;5.33;;;;;;;-146.32;100.00;58893.91;6227763;28;20630;-63
2021/12/03 06:27:39;;;;;;;7.23;5.80;;;;;;;-146.32;100.00;58893.91;6229700;28;20228;-63
2021/12/03 06:31:00;;;;;;;7.43;6.47;;;;;;;-146.32;100.00;58893.91;6226382;28;20662;-63
2021/12/03 06:34:23;;;;;;;6.47;5.40;;;;;;;-146.32;100.00;58893.91;6231599;28;20266;-63
2021/12/03 06:37:45;;;;;;;7.23;6.00;;;;;;;-146.32;100.00;58893.91;6220565;28;20228;-63
2021/12/03 06:41:07;;;;;;;7.50;5.93;;;;;;;-146.32;100.00;58893.91;6216147;28;20232;-62
2021/12/03 06:44:28;;;;;;;7.83;5.97;;;;;;;-146.32;100.00;58893.91;6228617;28;20233;-62
2021/12/03 06:47:49;;;;;;;6.23;5.77;;;;;;;-146.32;100.00;58893.91;6230835;28;20315;-62
2021/12/03 06:51:11;;;;;;;7.13;6.37;;;;;;;-146.32;100.00;58893.91;6230826;28;20233;-63
2021/12/03 06:54:34;;;;;;;8.67;6.13;;;;;;;-146.32;100.00;58893.91;6233465;28;20240;-63
2021/12/03 06:57:55;;;;;;;8.40;6.77;;;;;;;-146.32;100.00;58893.91;6227210;28;21037;-63
2021/12/03 07:01:16;;;;;;;7.03;6.33;;;;;;;-146.32;100.00;58893.91;6194945;28;20245;-61
2021/12/03 07:04:39;;;;;;;6.13;5.10;;;;;;;-146.32;100.00;58893.91;6222099;28;20252;-62
2021/12/03 07:08:02;;;;;;;7.73;6.70;;;;;;;-146.32;100.00;58893.91;6215717;28;20590;-63
2021/12/03 07:11:22;;;;;;;7.30;6.37;;;;;;;-146.32;100.00;58893.91;6224439;28;20232;-62
2021/12/03 07:14:44;;;;;;;6.00;5.40;;;;;;;-146.32;100.00;58893.91;6207262;28;20236;-63
2021/12/03 07:18:05;;;;;;;8.27;6.93;;;;;;;-146.32;100.00;58893.91;6229783;28;20232;-64
2021/12/03 07:21:26;;;;;;;7.77;6.37;;;;;;;-146.32;100.00;58893.91;6195560;28;20533;-64
2021/12/03 07:24:48;;;;;;;8.07;6.67;;;;;;;-146.32;100.00;58893.91;6229131;28;20220;-62
2021/12/03 07:28:09;;;;;;;6.03;5.53;;;;;;;-146.32;100.00;58893.91;6222498;28;20237;-63
2021/12/03 07:31:31;;;;;;;7.93;7.23;;;;;;;-146.32;100.00;58893.91;6231520;28;20236;-63
2021/12/03 07:34:52;;;;;;;9.33;7.50;;;;;;;-146.32;100.00;58893.91;6229410;28;20516;-61
2021/12/03 07:38:14;;;;;;;9.77;7.33;;;;;;;-146.32;100.00;58893.91;6226165;28;20521;-63
2021/12/03 07:41:40;;;;;;;6.60;5.90;;;;;;;-146.32;100.00;58893.91;6228251;28;20228;-62
2021/12/03 07:45:02;;;;;;;6.40;5.67;;;;;;;-146.32;100.00;58893.91;6228099;28;20232;-62
2021/12/03 07:48:24;;;;;;;8.40;7.70;;;;;;;-146.32;100.00;58893.91;6230145;28;20228;-64
2021/12/03 07:51:45;;;;;;;8.20;7.50;;;;;;;-146.32;100.00;58893.91;6233381;28;20228;-64
2021/12/03 07:55:07;;;;;;;8.27;7.27;;;;;;;-146.32;100.00;58893.91;6233694;28;20228;-63
2021/12/03 07:58:29;;;;;;;4.77;4.30;;;;;;;-146.32;100.00;58893.91;6235301;28;20722;-63
2021/12/03 08:01:50;;;;;;;8.00;7.28;;;;;;;-146.32;100.00;58893.91;6225769;28;20768;-63
2021/12/03 08:05:11;;;;;;;10.20;8.20;;;;;;;-146.32;100.00;58893.91;6230215;28;20240;-61
2021/12/03 08:08:32;;;;;;;8.63;7.67;;;;;;;-146.32;100.00;58893.91;6233389;28;20419;-61
2021/12/03 08:11:53;;;;;;;6.33;5.70;;;;;;;-146.32;100.00;58893.91;6231669;28;20244;-61
2021/12/03 08:15:17;;;;;;;6.00;5.40;;;;;;;-146.32;100.00;58893.91;6232987;28;20236;-61
2021/12/03 08:18:38;;;;;;;7.73;6.40;;;;;;;-146.32;100.00;58893.91;6227972;28;20658;-61
2021/12/03 08:21:59;;;;;;;8.10;5.83;;;;;;;-146.32;100.00;58893.91;6235901;28;20224;-61
2021/12/03 08:25:20;;;;;;;6.40;5.77;;;;;;;-146.32;100.00;58893.91;6225961;28;20228;-61
2021/12/03 08:28:41;;;;;;;6.33;5.13;;;;;;;-146.32;100.00;58893.91;6233611;28;20631;-62
2021/12/03 08:32:03;;;;;;;6.40;5.80;;;;;;;-146.32;100.00;58893.91;6229132;28;20378;-62
2021/12/03 08:35:25;;;;;;;8.87;7.10;;;;;;;-146.32;100.00;58893.91;6229902;28;20232;-63
2021/12/03 08:38:46;;;;;;;15.33;6.40;;;;;;;-146.32;100.00;58893.91;6233919;28;20236;-63
2021/12/03 08:42:10;;;;;;;7.83;6.40;;;;;;;-146.32;100.00;58893.91;6239358;28;20277;-62
2021/12/03 08:45:31;;;;;;;7.10;6.40;;;;;;;-146.32;100.00;58893.91;6238196;28;20315;-63
2021/12/03 08:48:53;;;;;;;7.70;6.97;;;;;;;-146.32;100.00;58893.91;6238234;28;20531;-63
2021/12/03 08:52:30;;;;;;;8.37;7.57;;;;;;;-146.32;100.00;58893.91;6235679;28;20307;-65
2021/12/03 08:55:51;;;;;;;7.63;6.93;;;;;;;-146.32;100.00;58893.91;6228829;28;20232;-63
2021/12/03 08:59:15;;;;;;;8.20;7.40;;;;;;;-146.32;100.00;58893.91;6235661;28;20632;-62
2021/12/03 09:02:35;;;;;;;9.47;8.60;;;;;;;-146.32;100.00;58893.91;6232124;28;20229;-62
2021/12/03 09:05:58;;;;;;;8.93;8.13;;;;;;;-146.32;100.00;58893.91;6227675;28;20225;-63
2021/12/03 09:09:19;;;;;;;9.53;8.13;;;;;;;-146.32;100.00;58893.91;6226602;28;20620;-63
2021/12/03 09:12:40;;;;;;;9.07;8.13;;;;;;;-146.32;100.00;58893.91;6223967;28;20245;-62
2021/12/03 09:16:04;;;;;;;11.13;8.97;;;;;;;-146.32;100.00;58893.91;6232183;28;21817;-63
2021/12/03 09:19:28;;;;;;;9.73;8.43;;;;;;;-146.32;100.00;58893.91;6232823;28;20606;-62
2021/12/03 09:22:52;;;;;;;11.00;9.90;;;;;;;-146.32;100.00;58893.91;6235490;28;20307;-63
2021/12/03 09:26:16;;;;;;;13.33;11.73;;;;;;;-146.32;100.00;58893.91;6238169;28;20516;-62
2021/12/03 09:29:37;;;;;;;10.37;9.37;;;;;;;-146.32;100.00;58893.91;6238707;28;20228;-63
2021/12/03 09:32:58;;;;;;;14.20;10.73;;;;;;;-146.32;100.00;58893.91;6228355;28;20228;-64
2021/12/03 09:36:19;;;;;;;11.50;10.30;;;;;;;-146.32;100.00;58893.91;6232684;28;20240;-63
2021/12/03 09:39:43;;;;;;;12.67;10.13;;;;;;;-146.32;100.00;58893.91;6226947;28;20224;-61
2021/12/03 09:43:05;;;;;;;12.93;11.47;;;;;;;-146.32;100.00;58893.91;6230599;28;20638;-63
2021/12/03 09:46:27;;;;;;;12.90;11.60;;;;;;;-146.32;100.00;58893.91;6228612;28;20812;-62
2021/12/03 09:49:53;;;;;;;14.83;12.13;;;;;;;-146.32;100.00;58893.91;6233984;28;20248;-63
2021/12/03 09:53:27;;;;;;;15.17;13.60;;;;;;;-146.32;100.00;58893.91;6234714;28;20533;-63
2021/12/03 09:56:51;;;;;;;14.10;12.70;;;;;;;-146.32;100.00;58893.91;6236051;28;20232;-63
2021/12/03 10:04:14;;;;;;;17.80;15.10;;;;;;;-146.32;100.00;58893.91;6233639;28;20236;-63
2021/12/03 10:15:07;;;;;;;17.00;13.80;;;;;;;-146.32;100.00;58893.91;6230932;28;20602;-62
2021/12/03 10:18:33;;;;;;;13.73;12.30;;;;;;;-146.32;100.00;58893.91;6235379;28;20592;-62
2021/12/03 10:22:21;;;;;;;20.27;15.60;;;;;;;-146.32;100.00;58893.91;6224442;28;20954;-65
2021/12/03 10:29:40;;;;;;;17.93;14.70;;;;;;;-146.32;100.00;58893.91;6166643;28;20227;-63
2021/12/03 10:33:36;;;;;;;13.87;12.17;;;;;;;-146.32;100.00;58893.91;6222727;28;20231;-62
2021/12/03 10:41:02;;;;;;;18.47;14.70;;;;;;;-146.32;100.00;58893.91;6231696;28;20237;-63
2021/12/03 10:44:44;;;;;;;22.07;15.97;;;;;;;-146.32;100.00;58893.91;6233275;28;20216;-63
2021/12/03 10:48:30;;;;;;;21.83;16.20;;;;;;;-146.32;100.00;58893.91;6232896;28;20240;-61
2021/12/03 10:52:02;;;;;;;18.20;15.57;;;;;;;-146.32;100.00;58893.91;6235838;28;20237;-62
2021/12/03 11:40:32;;;;;;;27.97;18.53;;;;;;;-146.32;100.00;58893.91;6189050;28;20224;-62
2021/12/03 12:40:58;;;;;;;32.60;21.50;;;;;;;-146.32;100.00;58893.91;6227022;28;20228;-62
2021/12/03 13:10:49;;;;;;;33.37;20.67;;;;;;;-146.32;100.00;58893.91;6120542;28;20235;-64
2021/12/03 14:02:38;;;;;;;22.50;17.13;;;;;;;3.07;100.00;100247.16;6247027;28;20236;-63
2021/12/03 14:10:15;;;;;;;33.37;19.77;;;;;;;3.19;100.00;100231.88;6250297;28;20224;-62
2021/12/03 14:39:52;;;;;;;22.60;17.33;;;;;;;2.60;100.00;100183.13;6194468;28;20604;-61
2021/12/03 14:43:34;;;;;;;24.40;18.90;;;;;;;2.66;100.00;100168.66;6237200;28;20232;-63
2021/12/03 14:47:13;;;;;;;27.87;17.87;;;;;;;2.59;100.00;100176.25;6236965;28;20319;-61
2021/12/03 14:51:02;;;;;;;22.43;17.00;;;;;;;2.38;100.00;100172.53;6237008;28;20231;-61
2021/12/03 14:54:34;;;;;;;25.70;17.93;;;;;;;2.74;100.00;100155.88;6237203;28;20645;-62
2021/12/03 14:58:02;;;;;;;26.87;17.33;;;;;;;2.40;100.00;100170.00;6233955;28;20606;-62
2021/12/03 15:01:29;;;;;;;29.80;19.70;;;;;;;2.66;100.00;100152.38;6230441;28;20340;-62
2021/12/03 15:05:09;;;;;;;27.10;14.47;;;;;;;2.23;100.00;100173.22;6233975;28;20224;-62
2021/12/03 15:08:35;;;;;;;23.70;15.37;;;;;;;2.14;100.00;100166.22;6235299;28;20236;-63
2021/12/03 15:12:17;;;;;;;24.70;18.40;;;;;;;2.36;100.00;100153.66;6233652;28;20236;-63
2021/12/03 15:19:43;;;;;;;28.10;18.53;;;;;;;2.46;100.00;100134.97;6236183;28;20319;-62
2021/12/03 15:30:41;;;;;;;21.83;14.77;;;;;;;2.21;100.00;100135.47;6232077;28;20236;-62
2021/12/03 15:34:08;;;;;;;20.13;14.57;;;;;;;2.00;100.00;100116.38;6229572;28;20229;-63
2021/12/03 16:06:53;;;;;;;14.67;11.37;;;;;;;2.07;100.00;100089.03;6213240;28;20244;-63
2021/12/03 16:10:19;;;;;;;16.53;12.40;;;;;;;2.06;100.00;100075.34;6223065;28;20232;-63
2021/12/03 16:13:52;;;;;;;10.90;9.33;;;;;;;1.92;100.00;100074.28;6222272;28;20248;-62
2021/12/03 16:17:33;;;;;;;12.50;10.57;;;;;;;1.87;100.00;100074.22;6225276;28;20236;-63
2021/12/03 16:53:51;;;;;;;10.07;8.53;;;;;;;2.10;100.00;100048.00;6248510;27;20893;-64
2021/12/03 16:57:14;;;;;;;9.97;8.93;;;;;;;2.10;100.00;100042.88;6215726;28;20224;-64
2021/12/03 17:00:37;;;;;;;11.27;10.10;;;;;;;2.22;100.00;100042.16;6240078;28;20803;-64
2021/12/03 17:04:05;;;;;;;11.23;8.27;;;;;;;2.10;100.00;100046.28;6236589;28;20232;-65
2021/12/03 17:44:44;;;;;;;9.20;8.40;;;;;;;2.60;100.00;99998.03;6249572;28;20235;-65
2021/12/03 17:55:57;;;;;;;8.87;8.00;;;;;;;2.60;100.00;99972.31;6238325;28;20742;-64
2021/12/03 17:59:17;;;;;;;7.83;7.03;;;;;;;2.55;100.00;99972.28;6238793;28;20236;-65
2021/12/03 18:02:42;;;;;;;6.17;5.57;;;;;;;2.45;100.00;99955.91;6234258;28;20239;-65
2021/12/03 18:06:31;;;;;;;8.27;6.63;;;;;;;2.52;100.00;99979.94;6224746;28;20260;-65
2021/12/03 18:14:09;;;;;;;7.47;6.43;;;;;;;2.62;100.00;99976.66;6205568;28;20230;-65
2021/12/03 18:43:37;;;;;;;8.37;7.47;;;;;;;2.60;100.00;99964.59;6213069;28;20602;-64
2021/12/03 18:54:43;;;;;;;10.17;9.23;;;;;;;2.86;100.00;99975.16;6195484;28;20603;-65
2021/12/03 18:58:08;;;;;;;10.53;9.70;;;;;;;2.88;100.00;99950.28;6203421;28;20343;-65
2021/12/03 19:01:30;;;;;;;7.83;7.13;;;;;;;2.68;100.00;99934.72;6205569;28;20222;-65
2021/12/03 19:04:55;;;;;;;9.67;8.73;;;;;;;2.72;100.00;99933.88;6204017;28;20221;-64
2021/12/03 19:08:19;;;;;;;12.77;11.57;;;;;;;3.00;100.00;99926.38;6227826;28;20241;-64
2021/12/03 19:11:44;;;;;;;9.13;8.43;;;;;;;2.73;100.00;99935.59;6211307;28;20229;-65
2021/12/03 19:15:09;;;;;;;7.00;6.30;;;;;;;2.68;100.00;99919.28;6187655;28;20237;-64
2021/12/03 19:18:31;;;;;;;10.93;9.93;;;;;;;2.87;100.00;99921.16;6194325;28;20591;-64
2021/12/03 19:21:54;;;;;;;8.53;7.73;;;;;;;3.02;100.00;99914.41;6201298;28;20222;-63
2021/12/03 19:25:16;;;;;;;8.97;7.83;;;;;;;2.89;100.00;99901.44;6203773;28;20623;-62
2021/12/03 19:28:37;;;;;;;10.30;9.50;;;;;;;3.19;100.00;99923.09;6203988;28;20233;-63
2021/12/03 19:31:59;;;;;;;9.73;8.93;;;;;;;3.09;100.00;99921.31;6188526;28;20221;-63
2021/12/03 19:35:20;;;;;;;9.00;8.10;;;;;;;2.92;100.00;99919.47;6196571;28;21226;-63
2021/12/03 19:38:41;;;;;;;11.57;10.57;;;;;;;3.25;100.00;99902.53;6194434;28;20252;-63
2021/12/03 19:42:06;;;;;;;8.03;7.33;;;;;;;3.00;100.00;99913.53;6185470;28;20233;-62
2021/12/03 19:45:32;;;;;;;9.30;8.60;;;;;;;3.01;100.00;99907.53;6194523;28;20237;-62
2021/12/03 19:49:03;;;;;;;10.50;9.47;;;;;;;2.92;100.00;99944.31;6205061;28;20229;-63
2021/12/03 19:52:27;;;;;;;12.73;11.73;;;;;;;3.18;100.00;99905.94;6198789;28;20233;-63
2021/12/03 19:55:49;;;;;;;13.40;12.10;;;;;;;3.24;100.00;99913.69;6207424;28;20336;-63
2021/12/03 19:59:11;;;;;;;12.20;11.13;;;;;;;3.17;100.00;99909.34;6199926;28;20500;-64
2021/12/03 20:02:32;;;;;;;13.97;12.80;;;;;;;3.13;100.00;99910.19;6196310;28;20228;-65
2021/12/03 20:05:54;;;;;;;12.63;11.57;;;;;;;3.17;100.00;99909.34;6203309;28;20222;-63
2021/12/03 20:09:19;;;;;;;14.43;13.03;;;;;;;3.31;100.00;99900.00;6206569;28;20237;-63
2021/12/03 20:12:40;;;;;;;16.37;14.83;;;;;;;3.52;100.00;99894.09;6199696;28;20221;-63
2021/12/03 20:16:12;;;;;;;16.77;15.23;;;;;;;3.39;100.00;99899.19;6195584;28;20245;-62
2021/12/03 20:19:35;;;;;;;17.37;15.53;;;;;;;3.40;100.00;99903.50;6229985;28;20229;-63
2021/12/03 20:23:04;;;;;;;15.20;13.70;;;;;;;3.49;100.00;99890.66;6227239;28;20252;-64
2021/12/03 20:26:36;;;;;;;16.40;14.90;;;;;;;3.43;100.00;99908.66;6203548;28;20383;-64
2021/12/03 20:29:58;;;;;;;18.47;16.83;;;;;;;3.57;100.00;99894.16;6204548;28;20277;-64
2021/12/03 20:33:42;;;;;;;17.90;16.27;;;;;;;3.67;100.00;99901.06;6195971;28;20229;-63
2021/12/03 20:37:06;;;;;;;15.40;14.07;;;;;;;3.45;100.00;99889.81;6199992;28;20233;-63
2021/12/03 20:40:32;;;;;;;17.27;15.57;;;;;;;3.46;100.00;99908.66;6204994;28;20583;-62
2021/12/03 20:44:02;;;;;;;16.73;15.20;;;;;;;3.51;100.00;99901.84;6207914;28;21095;-62
2021/12/03 20:47:59;;;;;;;18.00;16.40;;;;;;;3.57;100.00;99894.16;6222082;28;20225;-64
2021/12/03 20:51:35;;;;;;;20.00;18.10;;;;;;;3.50;100.00;99913.84;6224498;28;20224;-64
2021/12/03 21:09:42;;;;;;;19.57;17.97;;;;;;;3.82;100.00;99889.97;6200805;28;20228;-64
2021/12/03 21:13:11;;;;;;;18.70;17.10;;;;;;;3.77;100.00;99903.66;6203678;28;20237;-64
2021/12/03 21:16:58;;;;;;;20.63;18.77;;;;;;;3.72;100.00;99914.81;6202171;28;20717;-62
2021/12/03 21:20:25;;;;;;;19.53;17.53;;;;;;;3.85;100.00;99920.00;6208063;28;20227;-64
2021/12/03 21:23:47;;;;;;;16.40;14.80;;;;;;;3.50;100.00;99925.84;6192327;28;20245;-64
2021/12/03 21:27:13;;;;;;;17.77;16.27;;;;;;;3.83;100.00;99916.56;6190468;28;20233;-64
2021/12/03 21:30:39;;;;;;;16.97;15.37;;;;;;;3.70;100.00;99923.38;6182737;28;20336;-65
2021/12/03 21:41:41;;;;;;;18.67;17.07;;;;;;;3.66;100.00;99922.50;6130380;28;20465;-63
2021/12/03 21:45:03;;;;;;;20.77;18.70;;;;;;;3.66;100.00;99909.63;6172912;28;20249;-64
2021/12/03 21:48:24;;;;;;;16.77;15.23;;;;;;;3.48;100.00;99909.53;6208961;28;20241;-65
2021/12/03 21:51:47;;;;;;;18.00;16.47;;;;;;;3.55;100.00;99930.19;6210432;28;20228;-65
2021/12/03 21:55:08;;;;;;;15.60;14.13;;;;;;;3.47;100.00;99915.53;6201081;28;20626;-64
2021/12/03 21:58:29;;;;;;;19.10;17.20;;;;;;;3.63;100.00;99919.91;6207984;28;20229;-63
2021/12/03 22:01:50;;;;;;;19.13;17.40;;;;;;;3.75;100.00;99914.81;6200543;28;20233;-63
2021/12/03 22:05:11;;;;;;;19.90;18.10;;;;;;;3.68;100.00;99933.69;6222469;28;20303;-64
2021/12/03 22:08:33;;;;;;;16.90;15.23;;;;;;;3.64;100.00;99931.91;6216573;28;20225;-63
2021/12/03 22:11:54;;;;;;;15.43;13.83;;;;;;;3.66;100.00;99924.22;6207913;28;20225;-62
2021/12/03 22:15:15;;;;;;;20.40;18.53;;;;;;;3.97;100.00;99924.34;6211711;28;20241;-62